sensor_id;sensor_type;location;lat;lon;timestamp;temperature;humidity
18103;DHT22;9178;51.120;6.192;2023-02-02T00:01:17;7.40;99.90
18103;DHT22;9178;51.120;6.192;2023-02-02T00:03:45;7.40;99.90
18103;DHT22;9178;51.120;6.192;2023-02-02T00:06:13;7.40;99.90
18103;DHT22;9178;51.120;6.192;2023-02-02T00:08:43;7.40;99.90
18103;DHT22;9178;51.120;6.192;2023-02-02T00:11:10;7.40;99.90
18103;DHT22;9178;51.120;6.192;2023-02-02T00:13:37;7.40;99.90
18103;DHT22;9178;51.120;6.192;2023-02-02T00:19:05;7.40;99.90
18103;DHT22;9178;51.120;6.192;2023-02-02T00:21:33;7.40;99.90
18103;DHT22;9178;51.120;6.192;2023-02-02T00:24:01;7.40;99.90
18103;DHT22;9178;51.120;6.192;2023-02-02T00:26:28;7.40;99.90
18103;DHT22;9178;51.120;6.192;2023-02-02T00:28:55;7.40;99.90
18103;DHT22;9178;51.120;6.192;2023-02-02T00:31:22;7.40;99.90
18103;DHT22;9178;51.120;6.192;2023-02-02T00:33:50;7.40;99.90
18103;DHT22;9178;51.120;6.192;2023-02-02T00:36:18;7.40;99.90
18103;DHT22;9178;51.120;6.192;2023-02-02T00:38:46;7.40;99.90
18103;DHT22;9178;51.120;6.192;2023-02-02T00:41:14;7.40;99.90
18103;DHT22;9178;51.120;6.192;2023-02-02T00:43:41;7.30;99.90
18103;DHT22;9178;51.120;6.192;2023-02-02T00:46:12;7.30;99.90
18103;DHT22;9178;51.120;6.192;2023-02-02T00:48:39;7.20;99.90
18103;DHT22;9178;51.120;6.192;2023-02-02T00:51:05;7.20;99.90
18103;DHT22;9178;51.120;6.192;2023-02-02T00:53:32;7.20;99.90
18103;DHT22;9178;51.120;6.192;2023-02-02T00:56:02;7.10;99.90
18103;DHT22;9178;51.120;6.192;2023-02-02T00:58:31;7.10;99.90
18103;DHT22;9178;51.120;6.192;2023-02-02T01:00:58;7.10;99.90
18103;DHT22;9178;51.120;6.192;2023-02-02T01:03:24;7.10;99.90
18103;DHT22;9178;51.120;6.192;2023-02-02T01:05:51;7.10;99.90
18103;DHT22;9178;51.120;6.192;2023-02-02T01:08:18;7.10;99.90
18103;DHT22;9178;51.120;6.192;2023-02-02T01:10:45;7.10;99.90
18103;DHT22;9178;51.120;6.192;2023-02-02T01:13:12;7.10;99.90
18103;DHT22;9178;51.120;6.192;2023-02-02T01:15:40;7.10;99.90
18103;DHT22;9178;51.120;6.192;2023-02-02T01:18:07;7.10;99.90
18103;DHT22;9178;51.120;6.192;2023-02-02T01:20:35;7.10;99.90
18103;DHT22;9178;51.120;6.192;2023-02-02T01:23:01;7.20;99.90
18103;DHT22;9178;51.120;6.192;2023-02-02T01:25:28;7.20;99.90
18103;DHT22;9178;51.120;6.192;2023-02-02T01:27:56;7.20;99.90
18103;DHT22;9178;51.120;6.192;2023-02-02T01:30:23;7.20;99.90
18103;DHT22;9178;51.120;6.192;2023-02-02T01:32:52;7.20;99.90
18103;DHT22;9178;51.120;6.192;2023-02-02T01:35:19;7.20;99.90
18103;DHT22;9178;51.120;6.192;2023-02-02T01:37:46;7.30;99.90
18103;DHT22;9178;51.120;6.192;2023-02-02T01:40:14;7.30;99.90
18103;DHT22;9178;51.120;6.192;2023-02-02T01:42:41;7.30;99.90
18103;DHT22;9178;51.120;6.192;2023-02-02T01:45:20;7.30;99.90
18103;DHT22;9178;51.120;6.192;2023-02-02T01:47:50;7.30;99.90
18103;DHT22;9178;51.120;6.192;2023-02-02T01:50:22;7.30;99.90
18103;DHT22;9178;51.120;6.192;2023-02-02T01:52:50;7.30;99.90
18103;DHT22;9178;51.120;6.192;2023-02-02T01:55:21;7.30;99.90
18103;DHT22;9178;51.120;6.192;2023-02-02T01:57:51;7.30;99.90
18103;DHT22;9178;51.120;6.192;2023-02-02T02:00:20;7.30;99.90
18103;DHT22;9178;51.120;6.192;2023-02-02T02:02:52;7.40;99.90
18103;DHT22;9178;51.120;6.192;2023-02-02T02:05:25;7.40;99.90
18103;DHT22;9178;51.120;6.192;2023-02-02T02:07:56;7.40;99.90
18103;DHT22;9178;51.120;6.192;2023-02-02T02:10:24;7.30;99.90
18103;DHT22;9178;51.120;6.192;2023-02-02T02:12:51;7.30;99.90
18103;DHT22;9178;51.120;6.192;2023-02-02T02:15:19;7.40;99.90
18103;DHT22;9178;51.120;6.192;2023-02-02T02:18:22;7.40;99.90
18103;DHT22;9178;51.120;6.192;2023-02-02T02:24:32;7.40;99.90
18103;DHT22;9178;51.120;6.192;2023-02-02T02:28:00;7.40;99.90
18103;DHT22;9178;51.120;6.192;2023-02-02T02:33:44;7.40;99.90
18103;DHT22;9178;51.120;6.192;2023-02-02T02:36:17;7.40;99.90
18103;DHT22;9178;51.120;6.192;2023-02-02T02:38:50;7.40;99.90
18103;DHT22;9178;51.120;6.192;2023-02-02T02:41:20;7.40;99.90
18103;DHT22;9178;51.120;6.192;2023-02-02T02:43:51;7.40;99.90
18103;DHT22;9178;51.120;6.192;2023-02-02T02:46:21;7.40;99.90
18103;DHT22;9178;51.120;6.192;2023-02-02T02:48:52;7.40;99.90
18103;DHT22;9178;51.120;6.192;2023-02-02T02:51:43;7.40;99.90
18103;DHT22;9178;51.120;6.192;2023-02-02T02:54:11;7.40;99.90
18103;DHT22;9178;51.120;6.192;2023-02-02T02:56:48;7.40;99.90
18103;DHT22;9178;51.120;6.192;2023-02-02T02:59:26;7.40;99.90
18103;DHT22;9178;51.120;6.192;2023-02-02T03:02:03;7.40;99.90
18103;DHT22;9178;51.120;6.192;2023-02-02T03:04:39;7.40;99.90
18103;DHT22;9178;51.120;6.192;2023-02-02T03:07:17;7.40;99.90
18103;DHT22;9178;51.120;6.192;2023-02-02T03:09:48;7.50;99.90
18103;DHT22;9178;51.120;6.192;2023-02-02T03:12:16;7.50;99.90
18103;DHT22;9178;51.120;6.192;2023-02-02T03:14:43;7.50;99.90
18103;DHT22;9178;51.120;6.192;2023-02-02T03:17:10;7.50;99.90
18103;DHT22;9178;51.120;6.192;2023-02-02T03:19:39;7.50;99.90
18103;DHT22;9178;51.120;6.192;2023-02-02T03:22:06;7.50;99.90
18103;DHT22;9178;51.120;6.192;2023-02-02T03:24:32;7.50;99.90
18103;DHT22;9178;51.120;6.192;2023-02-02T03:27:00;7.50;99.90
18103;DHT22;9178;51.120;6.192;2023-02-02T03:29:27;7.50;99.90
18103;DHT22;9178;51.120;6.192;2023-02-02T03:31:54;7.50;99.90
18103;DHT22;9178;51.120;6.192;2023-02-02T03:34:21;7.50;99.90
18103;DHT22;9178;51.120;6.192;2023-02-02T03:36:50;7.50;99.90
18103;DHT22;9178;51.120;6.192;2023-02-02T03:39:17;7.50;99.90
18103;DHT22;9178;51.120;6.192;2023-02-02T03:41:44;7.50;99.90
18103;DHT22;9178;51.120;6.192;2023-02-02T03:44:11;7.50;99.90
18103;DHT22;9178;51.120;6.192;2023-02-02T03:46:37;7.50;99.90
18103;DHT22;9178;51.120;6.192;2023-02-02T03:49:04;7.60;99.90
18103;DHT22;9178;51.120;6.192;2023-02-02T03:51:31;7.50;99.90
18103;DHT22;9178;51.120;6.192;2023-02-02T03:54:00;7.50;99.90
18103;DHT22;9178;51.120;6.192;2023-02-02T03:56:27;7.50;99.90
18103;DHT22;9178;51.120;6.192;2023-02-02T03:58:54;7.50;99.90
18103;DHT22;9178;51.120;6.192;2023-02-02T04:01:26;7.50;99.90
18103;DHT22;9178;51.120;6.192;2023-02-02T04:03:53;7.50;99.90
18103;DHT22;9178;51.120;6.192;2023-02-02T04:06:20;7.50;99.90
18103;DHT22;9178;51.120;6.192;2023-02-02T04:08:47;7.50;99.90
18103;DHT22;9178;51.120;6.192;2023-02-02T04:11:16;7.50;99.90
18103;DHT22;9178;51.120;6.192;2023-02-02T04:13:43;7.60;99.90
18103;DHT22;9178;51.120;6.192;2023-02-02T04:16:11;7.50;99.90
18103;DHT22;9178;51.120;6.192;2023-02-02T04:18:38;7.50;99.90
18103;DHT22;9178;51.120;6.192;2023-02-02T04:21:06;7.50;99.90
18103;DHT22;9178;51.120;6.192;2023-02-02T04:23:33;7.50;99.90
18103;DHT22;9178;51.120;6.192;2023-02-02T04:26:01;7.50;99.90
18103;DHT22;9178;51.120;6.192;2023-02-02T04:28:31;7.50;99.90
18103;DHT22;9178;51.120;6.192;2023-02-02T04:30:58;7.50;99.90
18103;DHT22;9178;51.120;6.192;2023-02-02T04:33:26;7.50;99.90
18103;DHT22;9178;51.120;6.192;2023-02-02T04:35:54;7.50;99.90
18103;DHT22;9178;51.120;6.192;2023-02-02T04:38:21;7.50;99.90
18103;DHT22;9178;51.120;6.192;2023-02-02T04:40:48;7.50;99.90
18103;DHT22;9178;51.120;6.192;2023-02-02T04:43:15;7.50;99.90
18103;DHT22;9178;51.120;6.192;2023-02-02T04:45:44;7.50;99.90
18103;DHT22;9178;51.120;6.192;2023-02-02T04:48:11;7.50;99.90
18103;DHT22;9178;51.120;6.192;2023-02-02T04:50:38;7.50;99.90
18103;DHT22;9178;51.120;6.192;2023-02-02T04:53:05;7.50;99.90
18103;DHT22;9178;51.120;6.192;2023-02-02T04:55:35;7.50;99.90
18103;DHT22;9178;51.120;6.192;2023-02-02T04:58:02;7.50;99.90
18103;DHT22;9178;51.120;6.192;2023-02-02T05:00:29;7.50;99.90
18103;DHT22;9178;51.120;6.192;2023-02-02T05:02:58;7.50;99.90
18103;DHT22;9178;51.120;6.192;2023-02-02T05:05:31;7.50;99.90
18103;DHT22;9178;51.120;6.192;2023-02-02T05:07:57;7.50;99.90
18103;DHT22;9178;51.120;6.192;2023-02-02T05:10:25;7.50;99.90
18103;DHT22;9178;51.120;6.192;2023-02-02T05:12:52;7.50;99.90
18103;DHT22;9178;51.120;6.192;2023-02-02T05:15:19;7.50;99.90
18103;DHT22;9178;51.120;6.192;2023-02-02T05:17:46;7.50;99.90
18103;DHT22;9178;51.120;6.192;2023-02-02T05:20:18;7.50;99.90
18103;DHT22;9178;51.120;6.192;2023-02-02T05:22:47;7.50;99.90
18103;DHT22;9178;51.120;6.192;2023-02-02T05:25:15;7.40;99.90
18103;DHT22;9178;51.120;6.192;2023-02-02T05:27:42;7.40;99.90
18103;DHT22;9178;51.120;6.192;2023-02-02T05:30:10;7.30;99.90
18103;DHT22;9178;51.120;6.192;2023-02-02T05:32:38;7.30;99.90
18103;DHT22;9178;51.120;6.192;2023-02-02T05:35:06;7.30;99.90
18103;DHT22;9178;51.120;6.192;2023-02-02T05:37:34;7.20;99.90
18103;DHT22;9178;51.120;6.192;2023-02-02T05:40:01;7.10;99.90
18103;DHT22;9178;51.120;6.192;2023-02-02T05:42:28;7.10;99.90
18103;DHT22;9178;51.120;6.192;2023-02-02T05:44:55;7.10;99.90
18103;DHT22;9178;51.120;6.192;2023-02-02T05:47:22;7.00;99.90
18103;DHT22;9178;51.120;6.192;2023-02-02T05:49:49;7.00;99.90
18103;DHT22;9178;51.120;6.192;2023-02-02T05:52:18;7.00;99.90
18103;DHT22;9178;51.120;6.192;2023-02-02T05:54:47;7.00;99.90
18103;DHT22;9178;51.120;6.192;2023-02-02T05:57:14;7.00;99.90
18103;DHT22;9178;51.120;6.192;2023-02-02T05:59:41;6.90;99.90
18103;DHT22;9178;51.120;6.192;2023-02-02T06:02:08;6.90;99.90
18103;DHT22;9178;51.120;6.192;2023-02-02T06:04:35;6.90;99.90
18103;DHT22;9178;51.120;6.192;2023-02-02T06:07:01;6.90;99.90
18103;DHT22;9178;51.120;6.192;2023-02-02T06:09:28;6.90;99.90
18103;DHT22;9178;51.120;6.192;2023-02-02T06:11:56;6.90;99.90
18103;DHT22;9178;51.120;6.192;2023-02-02T06:14:23;6.90;99.90
18103;DHT22;9178;51.120;6.192;2023-02-02T06:16:50;6.90;99.90
18103;DHT22;9178;51.120;6.192;2023-02-02T06:19:18;6.90;99.90
18103;DHT22;9178;51.120;6.192;2023-02-02T06:21:45;6.90;99.90
18103;DHT22;9178;51.120;6.192;2023-02-02T06:24:12;6.90;99.90
18103;DHT22;9178;51.120;6.192;2023-02-02T06:26:38;6.90;99.90
18103;DHT22;9178;51.120;6.192;2023-02-02T06:29:11;6.90;99.90
18103;DHT22;9178;51.120;6.192;2023-02-02T06:31:39;6.80;99.90
18103;DHT22;9178;51.120;6.192;2023-02-02T06:34:05;6.90;99.90
18103;DHT22;9178;51.120;6.192;2023-02-02T06:36:33;6.90;99.90
18103;DHT22;9178;51.120;6.192;2023-02-02T06:38:59;6.90;99.90
18103;DHT22;9178;51.120;6.192;2023-02-02T06:41:29;6.90;99.90
18103;DHT22;9178;51.120;6.192;2023-02-02T06:43:56;6.90;99.90
18103;DHT22;9178;51.120;6.192;2023-02-02T06:46:25;6.90;99.90
18103;DHT22;9178;51.120;6.192;2023-02-02T06:48:52;6.90;99.90
18103;DHT22;9178;51.120;6.192;2023-02-02T06:51:19;6.90;99.90
18103;DHT22;9178;51.120;6.192;2023-02-02T06:53:47;6.90;99.90
18103;DHT22;9178;51.120;6.192;2023-02-02T06:56:14;6.90;99.90
18103;DHT22;9178;51.120;6.192;2023-02-02T06:58:42;6.90;99.90
18103;DHT22;9178;51.120;6.192;2023-02-02T07:01:10;6.90;99.90
18103;DHT22;9178;51.120;6.192;2023-02-02T07:03:39;6.90;99.90
18103;DHT22;9178;51.120;6.192;2023-02-02T07:06:11;6.90;99.90
18103;DHT22;9178;51.120;6.192;2023-02-02T07:08:38;6.80;99.90
18103;DHT22;9178;51.120;6.192;2023-02-02T07:11:05;6.80;99.90
18103;DHT22;9178;51.120;6.192;2023-02-02T07:13:32;6.80;99.90
18103;DHT22;9178;51.120;6.192;2023-02-02T07:15:59;6.80;99.90
18103;DHT22;9178;51.120;6.192;2023-02-02T07:18:26;6.80;99.90
18103;DHT22;9178;51.120;6.192;2023-02-02T07:20:57;6.90;99.90
18103;DHT22;9178;51.120;6.192;2023-02-02T07:23:24;6.80;99.90
18103;DHT22;9178;51.120;6.192;2023-02-02T07:26:00;6.80;99.90
18103;DHT22;9178;51.120;6.192;2023-02-02T07:28:27;6.80;99.90
18103;DHT22;9178;51.120;6.192;2023-02-02T07:30:54;6.80;99.90
18103;DHT22;9178;51.120;6.192;2023-02-02T07:33:21;6.80;99.90
18103;DHT22;9178;51.120;6.192;2023-02-02T07:35:48;6.90;99.90
18103;DHT22;9178;51.120;6.192;2023-02-02T07:38:17;6.80;99.90
18103;DHT22;9178;51.120;6.192;2023-02-02T07:40:44;6.80;99.90
18103;DHT22;9178;51.120;6.192;2023-02-02T07:43:11;6.90;99.90
18103;DHT22;9178;51.120;6.192;2023-02-02T07:45:38;6.90;99.90
18103;DHT22;9178;51.120;6.192;2023-02-02T07:48:05;6.90;99.90
18103;DHT22;9178;51.120;6.192;2023-02-02T07:50:32;6.90;99.90
18103;DHT22;9178;51.120;6.192;2023-02-02T07:52:59;6.90;99.90
18103;DHT22;9178;51.120;6.192;2023-02-02T07:55:27;6.90;99.90
18103;DHT22;9178;51.120;6.192;2023-02-02T07:57:54;6.90;99.90
18103;DHT22;9178;51.120;6.192;2023-02-02T08:00:23;7.00;99.90
18103;DHT22;9178;51.120;6.192;2023-02-02T08:02:51;7.00;99.90
18103;DHT22;9178;51.120;6.192;2023-02-02T08:05:18;7.00;99.90
18103;DHT22;9178;51.120;6.192;2023-02-02T08:07:46;7.00;99.90
18103;DHT22;9178;51.120;6.192;2023-02-02T08:10:14;7.00;99.90
18103;DHT22;9178;51.120;6.192;2023-02-02T08:12:42;7.00;99.90
18103;DHT22;9178;51.120;6.192;2023-02-02T08:15:10;7.00;99.90
18103;DHT22;9178;51.120;6.192;2023-02-02T08:17:37;7.00;99.90
18103;DHT22;9178;51.120;6.192;2023-02-02T08:20:05;7.10;99.90
18103;DHT22;9178;51.120;6.192;2023-02-02T08:22:32;7.10;99.90
18103;DHT22;9178;51.120;6.192;2023-02-02T08:24:59;7.10;99.90
18103;DHT22;9178;51.120;6.192;2023-02-02T08:27:26;7.20;99.90
18103;DHT22;9178;51.120;6.192;2023-02-02T08:29:54;7.20;99.90
18103;DHT22;9178;51.120;6.192;2023-02-02T08:32:21;7.20;99.90
18103;DHT22;9178;51.120;6.192;2023-02-02T08:34:48;7.20;99.90
18103;DHT22;9178;51.120;6.192;2023-02-02T08:37:16;7.20;99.90
18103;DHT22;9178;51.120;6.192;2023-02-02T08:39:43;7.20;99.90
18103;DHT22;9178;51.120;6.192;2023-02-02T08:42:10;7.30;99.90
18103;DHT22;9178;51.120;6.192;2023-02-02T08:44:36;7.30;99.90
18103;DHT22;9178;51.120;6.192;2023-02-02T08:47:08;7.30;99.90
18103;DHT22;9178;51.120;6.192;2023-02-02T08:49:35;7.30;99.90
18103;DHT22;9178;51.120;6.192;2023-02-02T08:52:02;7.30;99.90
18103;DHT22;9178;51.120;6.192;2023-02-02T08:54:29;7.40;99.90
18103;DHT22;9178;51.120;6.192;2023-02-02T08:56:56;7.40;99.90
18103;DHT22;9178;51.120;6.192;2023-02-02T08:59:23;7.40;99.90
18103;DHT22;9178;51.120;6.192;2023-02-02T09:01:50;7.40;99.90
18103;DHT22;9178;51.120;6.192;2023-02-02T09:04:21;7.40;99.90
18103;DHT22;9178;51.120;6.192;2023-02-02T09:06:48;7.40;99.90
18103;DHT22;9178;51.120;6.192;2023-02-02T09:09:16;7.40;99.90
18103;DHT22;9178;51.120;6.192;2023-02-02T09:11:43;7.40;99.90
18103;DHT22;9178;51.120;6.192;2023-02-02T09:14:11;7.40;99.90
18103;DHT22;9178;51.120;6.192;2023-02-02T09:16:39;7.40;99.90
18103;DHT22;9178;51.120;6.192;2023-02-02T09:19:08;7.50;99.90
18103;DHT22;9178;51.120;6.192;2023-02-02T09:21:37;7.50;99.90
18103;DHT22;9178;51.120;6.192;2023-02-02T09:24:06;7.50;99.90
18103;DHT22;9178;51.120;6.192;2023-02-02T09:26:33;7.50;99.90
18103;DHT22;9178;51.120;6.192;2023-02-02T09:29:01;7.50;99.90
18103;DHT22;9178;51.120;6.192;2023-02-02T09:31:30;7.50;99.90
18103;DHT22;9178;51.120;6.192;2023-02-02T09:34:00;7.50;99.90
18103;DHT22;9178;51.120;6.192;2023-02-02T09:36:27;7.50;99.90
18103;DHT22;9178;51.120;6.192;2023-02-02T09:38:56;7.50;99.90
18103;DHT22;9178;51.120;6.192;2023-02-02T09:44:49;7.50;99.90
18103;DHT22;9178;51.120;6.192;2023-02-02T09:47:23;7.50;99.90
18103;DHT22;9178;51.120;6.192;2023-02-02T09:49:57;7.60;99.90
18103;DHT22;9178;51.120;6.192;2023-02-02T09:52:29;7.60;99.90
18103;DHT22;9178;51.120;6.192;2023-02-02T09:55:01;7.60;99.90
18103;DHT22;9178;51.120;6.192;2023-02-02T09:57:34;7.60;99.90
18103;DHT22;9178;51.120;6.192;2023-02-02T10:00:03;7.60;99.90
18103;DHT22;9178;51.120;6.192;2023-02-02T10:02:36;7.60;99.90
18103;DHT22;9178;51.120;6.192;2023-02-02T10:05:09;7.60;99.90
18103;DHT22;9178;51.120;6.192;2023-02-02T10:07:40;7.60;99.90
18103;DHT22;9178;51.120;6.192;2023-02-02T10:10:14;7.60;99.90
18103;DHT22;9178;51.120;6.192;2023-02-02T10:12:46;7.60;99.90
18103;DHT22;9178;51.120;6.192;2023-02-02T10:15:21;7.60;99.90
18103;DHT22;9178;51.120;6.192;2023-02-02T10:17:57;7.60;99.90
18103;DHT22;9178;51.120;6.192;2023-02-02T10:20:32;7.60;99.90
18103;DHT22;9178;51.120;6.192;2023-02-02T10:23:12;7.60;99.90
18103;DHT22;9178;51.120;6.192;2023-02-02T10:25:50;7.60;99.90
18103;DHT22;9178;51.120;6.192;2023-02-02T10:28:29;7.60;99.90
18103;DHT22;9178;51.120;6.192;2023-02-02T10:31:00;7.60;99.90
18103;DHT22;9178;51.120;6.192;2023-02-02T10:33:34;7.60;99.90
18103;DHT22;9178;51.120;6.192;2023-02-02T10:36:09;7.60;99.90
18103;DHT22;9178;51.120;6.192;2023-02-02T10:38:42;7.60;99.90
18103;DHT22;9178;51.120;6.192;2023-02-02T10:41:19;7.70;99.90
18103;DHT22;9178;51.120;6.192;2023-02-02T10:44:08;7.70;99.90
18103;DHT22;9178;51.120;6.192;2023-02-02T10:46:40;7.80;99.90
18103;DHT22;9178;51.120;6.192;2023-02-02T10:49:16;7.80;99.90
18103;DHT22;9178;51.120;6.192;2023-02-02T10:51:49;7.90;99.90
18103;DHT22;9178;51.120;6.192;2023-02-02T10:57:15;8.00;99.90
18103;DHT22;9178;51.120;6.192;2023-02-02T10:59:55;8.00;99.90
18103;DHT22;9178;51.120;6.192;2023-02-02T11:02:24;8.00;99.90
18103;DHT22;9178;51.120;6.192;2023-02-02T11:04:51;8.00;99.90
18103;DHT22;9178;51.120;6.192;2023-02-02T11:07:35;8.00;99.90
18103;DHT22;9178;51.120;6.192;2023-02-02T11:10:02;8.10;99.90
18103;DHT22;9178;51.120;6.192;2023-02-02T11:12:32;8.10;99.90
18103;DHT22;9178;51.120;6.192;2023-02-02T11:15:02;8.10;99.90
18103;DHT22;9178;51.120;6.192;2023-02-02T11:17:30;8.10;99.90
18103;DHT22;9178;51.120;6.192;2023-02-02T11:19:57;8.10;99.90
18103;DHT22;9178;51.120;6.192;2023-02-02T11:22:30;8.10;99.90
18103;DHT22;9178;51.120;6.192;2023-02-02T11:25:01;8.20;99.90
18103;DHT22;9178;51.120;6.192;2023-02-02T11:27:32;8.20;99.90
18103;DHT22;9178;51.120;6.192;2023-02-02T11:30:19;8.20;99.90
18103;DHT22;9178;51.120;6.192;2023-02-02T11:32:47;8.20;99.90
18103;DHT22;9178;51.120;6.192;2023-02-02T11:35:18;8.20;99.90
18103;DHT22;9178;51.120;6.192;2023-02-02T11:38:07;8.30;99.90
18103;DHT22;9178;51.120;6.192;2023-02-02T11:40:37;8.30;99.90
18103;DHT22;9178;51.120;6.192;2023-02-02T11:43:16;8.30;99.90
18103;DHT22;9178;51.120;6.192;2023-02-02T11:45:44;8.30;99.90
18103;DHT22;9178;51.120;6.192;2023-02-02T11:48:16;8.30;99.90
18103;DHT22;9178;51.120;6.192;2023-02-02T11:50:45;8.30;99.90
18103;DHT22;9178;51.120;6.192;2023-02-02T11:53:22;8.30;99.90
18103;DHT22;9178;51.120;6.192;2023-02-02T11:55:50;8.40;99.90
18103;DHT22;9178;51.120;6.192;2023-02-02T11:58:23;8.40;99.90
18103;DHT22;9178;51.120;6.192;2023-02-02T12:00:54;8.40;99.90
18103;DHT22;9178;51.120;6.192;2023-02-02T12:03:24;8.50;99.90
18103;DHT22;9178;51.120;6.192;2023-02-02T12:05:51;8.50;99.90
18103;DHT22;9178;51.120;6.192;2023-02-02T12:08:18;8.50;99.90
18103;DHT22;9178;51.120;6.192;2023-02-02T12:10:53;8.60;99.90
18103;DHT22;9178;51.120;6.192;2023-02-02T12:13:42;8.60;99.90
18103;DHT22;9178;51.120;6.192;2023-02-02T12:16:22;8.60;99.90
18103;DHT22;9178;51.120;6.192;2023-02-02T12:19:01;8.60;99.90
18103;DHT22;9178;51.120;6.192;2023-02-02T12:21:37;8.60;99.90
18103;DHT22;9178;51.120;6.192;2023-02-02T12:24:22;8.70;99.90
18103;DHT22;9178;51.120;6.192;2023-02-02T12:26:56;8.70;99.90
18103;DHT22;9178;51.120;6.192;2023-02-02T12:29:43;8.70;99.90
18103;DHT22;9178;51.120;6.192;2023-02-02T12:32:25;8.70;99.90
18103;DHT22;9178;51.120;6.192;2023-02-02T12:35:14;8.70;99.90
18103;DHT22;9178;51.120;6.192;2023-02-02T12:37:53;8.70;99.90
18103;DHT22;9178;51.120;6.192;2023-02-02T12:40:43;8.70;99.90
18103;DHT22;9178;51.120;6.192;2023-02-02T12:43:22;8.70;99.90
18103;DHT22;9178;51.120;6.192;2023-02-02T12:46:22;8.70;99.90
18103;DHT22;9178;51.120;6.192;2023-02-02T12:49:06;8.80;99.90
18103;DHT22;9178;51.120;6.192;2023-02-02T12:51:52;8.80;99.90
18103;DHT22;9178;51.120;6.192;2023-02-02T12:54:38;8.80;99.90
18103;DHT22;9178;51.120;6.192;2023-02-02T12:57:15;8.90;99.90
18103;DHT22;9178;51.120;6.192;2023-02-02T13:00:02;8.90;99.90
18103;DHT22;9178;51.120;6.192;2023-02-02T13:02:36;8.90;99.90
18103;DHT22;9178;51.120;6.192;2023-02-02T13:05:20;8.90;99.90
18103;DHT22;9178;51.120;6.192;2023-02-02T13:07:53;8.90;99.90
18103;DHT22;9178;51.120;6.192;2023-02-02T13:10:28;8.90;99.90
18103;DHT22;9178;51.120;6.192;2023-02-02T13:13:01;8.90;99.90
18103;DHT22;9178;51.120;6.192;2023-02-02T13:15:33;8.90;99.90
18103;DHT22;9178;51.120;6.192;2023-02-02T13:18:06;8.90;99.90
18103;DHT22;9178;51.120;6.192;2023-02-02T13:20:38;8.90;99.90
18103;DHT22;9178;51.120;6.192;2023-02-02T13:23:10;8.90;99.90
18103;DHT22;9178;51.120;6.192;2023-02-02T13:25:46;8.80;99.90
18103;DHT22;9178;51.120;6.192;2023-02-02T13:28:29;8.90;99.90
18103;DHT22;9178;51.120;6.192;2023-02-02T13:30:59;8.90;99.90
18103;DHT22;9178;51.120;6.192;2023-02-02T13:33:31;8.90;99.90
18103;DHT22;9178;51.120;6.192;2023-02-02T13:36:02;8.90;99.90
18103;DHT22;9178;51.120;6.192;2023-02-02T13:38:31;8.90;99.90
18103;DHT22;9178;51.120;6.192;2023-02-02T13:41:01;8.90;99.90
18103;DHT22;9178;51.120;6.192;2023-02-02T13:43:36;9.00;99.90
18103;DHT22;9178;51.120;6.192;2023-02-02T13:46:10;9.00;99.90
18103;DHT22;9178;51.120;6.192;2023-02-02T13:48:56;9.00;99.90
18103;DHT22;9178;51.120;6.192;2023-02-02T13:55:11;8.90;99.90
18103;DHT22;9178;51.120;6.192;2023-02-02T13:58:03;9.00;99.90
18103;DHT22;9178;51.120;6.192;2023-02-02T14:00:40;9.00;99.90
18103;DHT22;9178;51.120;6.192;2023-02-02T14:03:26;9.10;99.90
18103;DHT22;9178;51.120;6.192;2023-02-02T14:06:08;9.10;99.90
18103;DHT22;9178;51.120;6.192;2023-02-02T14:08:36;9.10;99.90
18103;DHT22;9178;51.120;6.192;2023-02-02T14:11:05;9.20;99.90
18103;DHT22;9178;51.120;6.192;2023-02-02T14:13:41;9.20;99.90
18103;DHT22;9178;51.120;6.192;2023-02-02T14:16:42;9.10;99.90
18103;DHT22;9178;51.120;6.192;2023-02-02T14:19:14;9.20;99.90
18103;DHT22;9178;51.120;6.192;2023-02-02T14:22:03;9.20;99.90
18103;DHT22;9178;51.120;6.192;2023-02-02T14:24:45;9.20;99.90
18103;DHT22;9178;51.120;6.192;2023-02-02T14:27:39;9.20;99.90
18103;DHT22;9178;51.120;6.192;2023-02-02T14:30:29;9.10;99.90
18103;DHT22;9178;51.120;6.192;2023-02-02T14:33:26;9.20;99.90
18103;DHT22;9178;51.120;6.192;2023-02-02T14:36:17;9.10;99.90
18103;DHT22;9178;51.120;6.192;2023-02-02T14:39:16;9.10;99.90
18103;DHT22;9178;51.120;6.192;2023-02-02T14:42:18;9.10;99.90
18103;DHT22;9178;51.120;6.192;2023-02-02T14:45:20;9.10;99.90
18103;DHT22;9178;51.120;6.192;2023-02-02T14:47:52;9.10;99.90
18103;DHT22;9178;51.120;6.192;2023-02-02T14:50:32;9.10;99.90
18103;DHT22;9178;51.120;6.192;2023-02-02T14:53:05;9.10;99.90
18103;DHT22;9178;51.120;6.192;2023-02-02T14:55:54;9.10;99.90
18103;DHT22;9178;51.120;6.192;2023-02-02T14:58:27;9.10;99.90
18103;DHT22;9178;51.120;6.192;2023-02-02T15:01:06;9.10;99.90
18103;DHT22;9178;51.120;6.192;2023-02-02T15:06:31;9.10;99.90
18103;DHT22;9178;51.120;6.192;2023-02-02T15:09:24;9.10;99.90
18103;DHT22;9178;51.120;6.192;2023-02-02T15:12:21;9.10;99.90
18103;DHT22;9178;51.120;6.192;2023-02-02T15:14:55;9.10;99.90
18103;DHT22;9178;51.120;6.192;2023-02-02T15:17:31;9.10;99.90
18103;DHT22;9178;51.120;6.192;2023-02-02T15:20:07;9.10;99.90
18103;DHT22;9178;51.120;6.192;2023-02-02T15:22:52;9.10;99.90
18103;DHT22;9178;51.120;6.192;2023-02-02T15:25:24;9.10;99.90
18103;DHT22;9178;51.120;6.192;2023-02-02T15:27:59;9.10;99.90
18103;DHT22;9178;51.120;6.192;2023-02-02T15:30:29;9.10;99.90
18103;DHT22;9178;51.120;6.192;2023-02-02T15:33:02;9.10;99.90
18103;DHT22;9178;51.120;6.192;2023-02-02T15:35:31;9.10;99.90
18103;DHT22;9178;51.120;6.192;2023-02-02T15:38:03;9.10;99.90
18103;DHT22;9178;51.120;6.192;2023-02-02T15:40:35;9.10;99.90
18103;DHT22;9178;51.120;6.192;2023-02-02T15:43:06;9.00;99.90
18103;DHT22;9178;51.120;6.192;2023-02-02T15:45:43;9.10;99.90
18103;DHT22;9178;51.120;6.192;2023-02-02T15:48:22;9.10;99.90
18103;DHT22;9178;51.120;6.192;2023-02-02T15:50:51;9.10;99.90
18103;DHT22;9178;51.120;6.192;2023-02-02T15:53:22;9.00;99.90
18103;DHT22;9178;51.120;6.192;2023-02-02T15:55:50;9.00;99.90
18103;DHT22;9178;51.120;6.192;2023-02-02T15:58:28;9.00;99.90
18103;DHT22;9178;51.120;6.192;2023-02-02T16:00:59;8.90;99.90
18103;DHT22;9178;51.120;6.192;2023-02-02T16:03:33;8.90;99.90
18103;DHT22;9178;51.120;6.192;2023-02-02T16:06:04;8.90;99.90
18103;DHT22;9178;51.120;6.192;2023-02-02T16:08:32;8.90;99.90
18103;DHT22;9178;51.120;6.192;2023-02-02T16:11:08;8.90;99.90
18103;DHT22;9178;51.120;6.192;2023-02-02T16:13:57;8.90;99.90
18103;DHT22;9178;51.120;6.192;2023-02-02T16:16:27;8.90;99.90
18103;DHT22;9178;51.120;6.192;2023-02-02T16:19:12;8.90;99.90
18103;DHT22;9178;51.120;6.192;2023-02-02T16:21:44;8.90;99.90
18103;DHT22;9178;51.120;6.192;2023-02-02T16:24:17;8.80;99.90
18103;DHT22;9178;51.120;6.192;2023-02-02T16:26:46;8.80;99.90
18103;DHT22;9178;51.120;6.192;2023-02-02T16:29:15;8.70;99.90
18103;DHT22;9178;51.120;6.192;2023-02-02T16:31:44;8.60;99.90
18103;DHT22;9178;51.120;6.192;2023-02-02T16:34:16;8.50;99.90
18103;DHT22;9178;51.120;6.192;2023-02-02T16:36:43;8.50;99.90
18103;DHT22;9178;51.120;6.192;2023-02-02T16:39:29;8.40;99.90
18103;DHT22;9178;51.120;6.192;2023-02-02T16:42:07;8.30;99.90
18103;DHT22;9178;51.120;6.192;2023-02-02T16:44:41;8.30;99.90
18103;DHT22;9178;51.120;6.192;2023-02-02T16:47:33;8.30;99.90
18103;DHT22;9178;51.120;6.192;2023-02-02T16:50:23;8.20;99.90
18103;DHT22;9178;51.120;6.192;2023-02-02T16:52:52;8.20;99.90
18103;DHT22;9178;51.120;6.192;2023-02-02T16:55:21;8.20;99.90